Data Viewer
| City | State | Eastern Time | Source | Temp | DewPt | RH | BP | 5 Min Precip | Wind Speed | Wind Dir | 5 Min Wind Max | 5 Min Wind Max Dir |
|---|---|---|---|---|---|---|---|---|---|---|---|---|
| Lancaster | PA | 2026-05-04 19:20 | ASOS | 70 | 43 | 38 | 29.78 | 9 | S | |||
| Lancaster | PA | 2026-05-05 11:10 | ASOS | 77 | 48 | 36 | 29.82 | 15 | WSW | |||
| Lancaster | PA | 2026-05-05 11:40 | ASOS | 79 | 48 | 34 | 29.81 | 18 | WSW | |||
| Lancaster | PA | 2026-05-05 11:35 | ASOS | 79 | 48 | 34 | 29.81 | 18 | W | |||
| Lancaster | PA | 2026-05-05 11:30 | ASOS | 79 | 48 | 34 | 29.81 | 16 | W | |||
| Lancaster | PA | 2026-05-05 11:25 | ASOS | 79 | 48 | 34 | 29.82 | 20 | WSW | |||
| Lancaster | PA | 2026-05-05 11:20 | ASOS | 79 | 48 | 34 | 29.82 | 18 | WSW | |||
| Lancaster | PA | 2026-05-05 11:15 | ASOS | 79 | 48 | 34 | 29.82 | 16 | WSW | |||
| Lancaster | PA | 2026-05-05 11:05 | ASOS | 77 | 48 | 36 | 29.82 | 22 | WSW | |||
| Lancaster | PA | 2026-05-05 11:50 | ASOS | 79 | 48 | 34 | 29.82 | 20 | W | |||
| Lancaster | PA | 2026-05-05 11:00 | ASOS | 79 | 48 | 34 | 29.82 | 18 | WSW | |||
| Lancaster | PA | 2026-05-05 10:55 | ASOS | 77 | 48 | 36 | 29.82 | 15 | WSW | |||
| Lancaster | PA | 2026-05-05 10:53 | ASOS | 77 | 49 | 37 | 29.82 | 14 | W | |||
| Lancaster | PA | 2026-05-05 10:50 | ASOS | 77 | 48 | 36 | 29.82 | 17 | WSW | |||
| Lancaster | PA | 2026-05-05 10:45 | ASOS | 77 | 48 | 36 | 29.82 | 15 | WSW | |||
| Lancaster | PA | 2026-05-05 10:40 | ASOS | 75 | 48 | 39 | 29.82 | 18 | WSW | |||
| Lancaster | PA | 2026-05-05 11:45 | ASOS | 79 | 50 | 37 | 29.81 | 18 | W | |||
| Lancaster | PA | 2026-05-05 11:53 | ASOS | 79 | 49 | 35 | 29.82 | 18 | W | |||
| Lancaster | PA | 2026-05-05 10:30 | ASOS | 75 | 48 | 39 | 29.83 | 15 | WSW | |||
| Lancaster | PA | 2026-05-05 12:40 | ASOS | 81 | 48 | 32 | 29.80 | 14 | WSW | |||
| Lancaster | PA | 2026-05-05 13:10 | ASOS | 81 | 48 | 32 | 29.78 | 13 | WSW | |||
| Lancaster | PA | 2026-05-05 13:05 | ASOS | 81 | 48 | 32 | 29.79 | 17 | WSW | |||
| Lancaster | PA | 2026-05-05 13:00 | ASOS | 81 | 48 | 32 | 29.79 | 20 | WSW | |||
| Lancaster | PA | 2026-05-05 12:53 | ASOS | 80 | 47 | 31 | 29.80 | 15 | SW | |||
| Lancaster | PA | 2026-05-05 12:50 | ASOS | 81 | 46 | 30 | 29.80 | 18 | W | |||
| Lancaster | PA | 2026-05-05 12:45 | ASOS | 81 | 46 | 30 | 29.80 | 18 | WSW | |||
| Lancaster | PA | 2026-05-05 12:35 | ASOS | 81 | 48 | 32 | 29.80 | 18 | WSW | |||
| Lancaster | PA | 2026-05-05 11:55 | ASOS | 79 | 48 | 34 | 29.81 | 17 | W | |||
| Lancaster | PA | 2026-05-05 12:30 | ASOS | 81 | 48 | 32 | 29.80 | 18 | W | |||
| Lancaster | PA | 2026-05-05 12:25 | ASOS | 79 | 48 | 34 | 29.81 | 20 | W | |||
| Lancaster | PA | 2026-05-05 12:20 | ASOS | 79 | 48 | 34 | 29.81 | 21 | W | |||
| Lancaster | PA | 2026-05-05 12:15 | ASOS | 79 | 48 | 34 | 29.81 | 20 | WSW | |||
| Lancaster | PA | 2026-05-05 12:10 | ASOS | 79 | 48 | 34 | 29.82 | 18 | W | |||
| Lancaster | PA | 2026-05-05 12:05 | ASOS | 79 | 48 | 34 | 29.81 | 17 | WSW | |||
| Lancaster | PA | 2026-05-05 12:00 | ASOS | 79 | 48 | 34 | 29.81 | 17 | WSW | |||
| Lancaster | PA | 2026-05-05 10:35 | ASOS | 75 | 50 | 41 | 29.83 | 14 | WSW | |||
| Lancaster | PA | 2026-05-05 10:25 | ASOS | 75 | 48 | 39 | 29.83 | 12 | WSW | |||
| Lancaster | PA | 2026-05-05 13:20 | ASOS | 81 | 46 | 30 | 29.78 | 17 | WSW | |||
| Lancaster | PA | 2026-05-05 08:20 | ASOS | 64 | 48 | 56 | 29.87 | 6 | SSW | |||
| Lancaster | PA | 2026-05-05 08:50 | ASOS | 66 | 48 | 52 | 29.86 | 6 | S | |||
| Lancaster | PA | 2026-05-05 08:45 | ASOS | 66 | 48 | 52 | 29.87 | 9 | SSW | |||
| Lancaster | PA | 2026-05-05 08:40 | ASOS | 66 | 48 | 52 | 29.87 | 6 | SSW | |||
| Lancaster | PA | 2026-05-05 08:35 | ASOS | 66 | 48 | 52 | 29.87 | 9 | SSW | |||
| Lancaster | PA | 2026-05-05 08:30 | ASOS | 64 | 48 | 56 | 29.87 | 8 | SW | |||
| Lancaster | PA | 2026-05-05 08:25 | ASOS | 64 | 48 | 56 | 29.87 | 6 | SSW | |||
| Lancaster | PA | 2026-05-05 08:15 | ASOS | 64 | 50 | 60 | 29.87 | 6 | S | |||
| Lancaster | PA | 2026-05-05 08:55 | ASOS | 66 | 50 | 56 | 29.87 | 7 | S | |||
| Lancaster | PA | 2026-05-05 08:10 | ASOS | 63 | 50 | 63 | 29.86 | 6 | S | |||
| Lancaster | PA | 2026-05-05 08:05 | ASOS | 63 | 52 | 68 | 29.86 | 7 | S | |||
| Lancaster | PA | 2026-05-05 08:00 | ASOS | 61 | 52 | 72 | 29.86 | 5 | SE | |||
| Lancaster | PA | 2026-05-05 07:53 | ASOS | 61 | 51 | 70 | 29.86 | 3 | E | |||
| Lancaster | PA | 2026-05-05 07:50 | ASOS | 61 | 52 | 72 | 29.86 | 0 | N | |||
| Lancaster | PA | 2026-05-05 07:40 | ASOS | 57 | 52 | 82 | 29.85 | 3 | ENE | |||
| Lancaster | PA | 2026-05-05 08:53 | ASOS | 67 | 50 | 55 | 29.87 | 6 | SSW | |||
| Lancaster | PA | 2026-05-05 09:00 | ASOS | 66 | 48 | 52 | 29.87 | 6 | SSW | |||
| Lancaster | PA | 2026-05-05 10:20 | ASOS | 75 | 50 | 41 | 29.83 | 12 | SW | |||
| Lancaster | PA | 2026-05-05 09:50 | ASOS | 72 | 48 | 43 | 29.84 | 7 | WSW | |||
| Lancaster | PA | 2026-05-05 10:15 | ASOS | 75 | 50 | 41 | 29.83 | 10 | SW | |||
| Lancaster | PA | 2026-05-05 10:10 | ASOS | 73 | 50 | 44 | 29.83 | 12 | SW | |||
| Lancaster | PA | 2026-05-05 10:05 | ASOS | 73 | 50 | 44 | 29.83 | 10 | SW | |||
| Lancaster | PA | 2026-05-05 10:00 | ASOS | 73 | 48 | 41 | 29.83 | 10 | SW | |||
| Lancaster | PA | 2026-05-05 09:55 | ASOS | 73 | 50 | 44 | 29.84 | 10 | SW | |||
| Lancaster | PA | 2026-05-05 09:53 | ASOS | 72 | 50 | 46 | 29.84 | 12 | SW | |||
| Lancaster | PA | 2026-05-05 09:45 | ASOS | 72 | 48 | 43 | 29.84 | 10 | SW | |||
| Lancaster | PA | 2026-05-05 09:05 | ASOS | 68 | 50 | 53 | 29.86 | 8 | SSW | |||
| Lancaster | PA | 2026-05-05 09:40 | ASOS | 72 | 48 | 43 | 29.84 | 8 | WSW | |||
| Lancaster | PA | 2026-05-05 09:35 | ASOS | 72 | 50 | 47 | 29.84 | 9 | SW | |||
| Lancaster | PA | 2026-05-05 09:30 | ASOS | 70 | 48 | 46 | 29.85 | 10 | SW | |||
| Lancaster | PA | 2026-05-05 09:25 | ASOS | 70 | 48 | 46 | 29.85 | 10 | SW | |||
| Lancaster | PA | 2026-05-05 09:20 | ASOS | 70 | 50 | 49 | 29.85 | 12 | SW | |||
| Lancaster | PA | 2026-05-05 09:15 | ASOS | 70 | 50 | 49 | 29.85 | 7 | SW | |||
| Lancaster | PA | 2026-05-05 09:10 | ASOS | 68 | 50 | 53 | 29.86 | 9 | SSW | |||
| Lancaster | PA | 2026-05-05 13:15 | ASOS | 81 | 48 | 32 | 29.79 | 17 | WSW | |||
| Lancaster | PA | 2026-05-05 13:25 | ASOS | 81 | 46 | 30 | 29.78 | 17 | SW | |||
| Lancaster | PA | 2026-05-05 07:30 | ASOS | 57 | 52 | 82 | 29.85 | 3 | ENE | |||
| Lancaster | PA | 2026-05-05 17:00 | ASOS | 82 | 43 | 25 | 29.73 | 16 | SW | |||
| Lancaster | PA | 2026-05-05 17:30 | ASOS | 81 | 43 | 26 | 29.73 | 18 | SSW | |||
| Lancaster | PA | 2026-05-05 17:25 | ASOS | 82 | 43 | 25 | 29.73 | 20 | SSW | |||
| Lancaster | PA | 2026-05-05 17:20 | ASOS | 82 | 43 | 25 | 29.73 | 15 | SSW | |||
| Lancaster | PA | 2026-05-05 17:15 | ASOS | 82 | 43 | 25 | 29.73 | 23 | SSW | |||
| Lancaster | PA | 2026-05-05 17:10 | ASOS | 82 | 43 | 25 | 29.73 | 23 | SSW | |||
| Lancaster | PA | 2026-05-05 17:05 | ASOS | 82 | 45 | 27 | 29.73 | 15 | SW | |||
| Lancaster | PA | 2026-05-05 16:53 | ASOS | 82 | 43 | 25 | 29.72 | 18 | SSW | |||
| Lancaster | PA | 2026-05-05 17:40 | ASOS | 81 | 43 | 26 | 29.73 | 17 | SSW | |||
| Lancaster | PA | 2026-05-05 16:50 | ASOS | 82 | 43 | 25 | 29.72 | 23 | SSW | |||
| Lancaster | PA | 2026-05-05 16:45 | ASOS | 82 | 43 | 25 | 29.72 | 20 | SSW | |||
| Lancaster | PA | 2026-05-05 16:40 | ASOS | 82 | 43 | 25 | 29.73 | 18 | SW | |||
| Lancaster | PA | 2026-05-05 16:35 | ASOS | 82 | 45 | 27 | 29.73 | 20 | SSW | |||
| Lancaster | PA | 2026-05-05 16:30 | ASOS | 81 | 45 | 28 | 29.73 | 12 | SW | |||
| Lancaster | PA | 2026-05-05 16:25 | ASOS | 82 | 45 | 27 | 29.73 | 20 | SW | |||
| Lancaster | PA | 2026-05-05 17:35 | ASOS | 81 | 43 | 26 | 29.73 | 22 | SSW | |||
| Lancaster | PA | 2026-05-05 17:45 | ASOS | 81 | 43 | 26 | 29.73 | 17 | SW | |||
| Lancaster | PA | 2026-05-05 16:15 | ASOS | 82 | 43 | 25 | 29.74 | 15 | SSW | |||
| Lancaster | PA | 2026-05-05 18:35 | ASOS | 81 | 41 | 25 | 29.74 | 13 | SSW | |||
| Lancaster | PA | 2026-05-05 19:05 | ASOS | 79 | 41 | 26 | 29.75 | 14 | SSW | |||
| Lancaster | PA | 2026-05-05 19:00 | ASOS | 79 | 41 | 26 | 29.75 | 15 | SSW | |||
| Lancaster | PA | 2026-05-05 18:55 | ASOS | 79 | 39 | 24 | 29.75 | 16 | S | |||
| Lancaster | PA | 2026-05-05 18:53 | ASOS | 79 | 40 | 25 | 29.75 | 15 | SSW | |||
| Lancaster | PA | 2026-05-05 18:45 | ASOS | 79 | 39 | 24 | 29.74 | 17 | SSW | |||
| Lancaster | PA | 2026-05-05 18:40 | ASOS | 79 | 41 | 26 | 29.75 | 14 | SSW | |||
| Lancaster | PA | 2026-05-05 18:30 | ASOS | 81 | 41 | 25 | 29.74 | 16 | SW | |||
| Lancaster | PA | 2026-05-05 17:50 | ASOS | 81 | 43 | 26 | 29.73 | 16 | SW | |||
| Lancaster | PA | 2026-05-05 18:25 | ASOS | 81 | 41 | 25 | 29.74 | 16 | SW | |||
| Lancaster | PA | 2026-05-05 18:20 | ASOS | 81 | 41 | 25 | 29.74 | 14 | SSW | |||
| Lancaster | PA | 2026-05-05 18:15 | ASOS | 81 | 41 | 25 | 29.74 | 17 | SSW | |||
| Lancaster | PA | 2026-05-05 18:10 | ASOS | 81 | 41 | 25 | 29.74 | 18 | SSW | |||
| Lancaster | PA | 2026-05-05 18:05 | ASOS | 81 | 43 | 26 | 29.74 | 14 | SSW | |||
| Lancaster | PA | 2026-05-05 18:00 | ASOS | 81 | 43 | 26 | 29.73 | 12 | SSW | |||
| Lancaster | PA | 2026-05-05 17:53 | ASOS | 81 | 42 | 25 | 29.73 | 17 | SW | |||
| Lancaster | PA | 2026-05-05 16:20 | ASOS | 82 | 45 | 27 | 29.74 | 17 | SW | |||
| Lancaster | PA | 2026-05-05 16:10 | ASOS | 82 | 43 | 25 | 29.74 | 21 | SSW | |||
| Lancaster | PA | 2026-05-05 13:30 | ASOS | 81 | 45 | 28 | 29.78 | 18 | SSW | |||
| Lancaster | PA | 2026-05-05 14:05 | ASOS | 82 | 46 | 28 | 29.77 | 17 | WSW | |||
| Lancaster | PA | 2026-05-05 14:35 | ASOS | 82 | 45 | 27 | 29.76 | 21 | SSW | |||
| Lancaster | PA | 2026-05-05 14:30 | ASOS | 82 | 45 | 27 | 29.76 | 16 | S | |||
| Lancaster | PA | 2026-05-05 14:25 | ASOS | 82 | 45 | 27 | 29.76 | 17 | SW | |||
| Lancaster | PA | 2026-05-05 14:20 | ASOS | 82 | 45 | 27 | 29.76 | 21 | S | |||
| Lancaster | PA | 2026-05-05 14:15 | ASOS | 82 | 45 | 27 | 29.77 | 17 | SSW | |||
| Lancaster | PA | 2026-05-05 14:10 | ASOS | 82 | 46 | 28 | 29.77 | 21 | SW | |||
| Lancaster | PA | 2026-05-05 14:00 | ASOS | 82 | 46 | 28 | 29.77 | 14 | SW | |||
| Lancaster | PA | 2026-05-05 14:45 | ASOS | 82 | 45 | 27 | 29.76 | 20 | WSW | |||
| Lancaster | PA | 2026-05-05 13:55 | ASOS | 82 | 46 | 28 | 29.77 | 15 | SSW | |||
| Lancaster | PA | 2026-05-05 13:53 | ASOS | 82 | 46 | 28 | 29.77 | 16 | SW | |||
| Lancaster | PA | 2026-05-05 13:50 | ASOS | 81 | 46 | 30 | 29.77 | 15 | WSW | |||
| Lancaster | PA | 2026-05-05 13:45 | ASOS | 81 | 45 | 28 | 29.77 | 15 | WSW | |||
| Lancaster | PA | 2026-05-05 13:40 | ASOS | 81 | 45 | 28 | 29.77 | 15 | SSW | |||
| Lancaster | PA | 2026-05-05 13:35 | ASOS | 81 | 45 | 28 | 29.78 | 18 | SW | |||
| Lancaster | PA | 2026-05-05 14:40 | ASOS | 82 | 45 | 27 | 29.76 | 15 | SSW | |||
| Lancaster | PA | 2026-05-05 14:50 | ASOS | 82 | 45 | 27 | 29.75 | 25 | SSW | |||
| Lancaster | PA | 2026-05-05 16:05 | ASOS | 82 | 43 | 25 | 29.74 | 15 | SW | |||
| Lancaster | PA | 2026-05-05 15:35 | ASOS | 82 | 45 | 27 | 29.74 | 17 | SW | |||
| Lancaster | PA | 2026-05-05 16:00 | ASOS | 82 | 43 | 25 | 29.74 | 17 | SW | |||
| Lancaster | PA | 2026-05-05 15:55 | ASOS | 82 | 43 | 25 | 29.74 | 21 | SW | |||
| Lancaster | PA | 2026-05-05 15:53 | ASOS | 82 | 43 | 25 | 29.74 | 23 | WSW | |||
| Lancaster | PA | 2026-05-05 15:50 | ASOS | 82 | 43 | 25 | 29.74 | 21 | SW | |||
| Lancaster | PA | 2026-05-05 15:45 | ASOS | 82 | 43 | 25 | 29.74 | 24 | SSW | |||
| Lancaster | PA | 2026-05-05 15:40 | ASOS | 82 | 43 | 25 | 29.74 | 17 | SSW | |||
| Lancaster | PA | 2026-05-05 15:30 | ASOS | 82 | 43 | 25 | 29.74 | 22 | SSW | |||
| Lancaster | PA | 2026-05-05 14:53 | ASOS | 82 | 43 | 25 | 29.75 | 16 | SSW | |||
| Lancaster | PA | 2026-05-05 15:25 | ASOS | 82 | 43 | 25 | 29.75 | 18 | SW | |||
| Lancaster | PA | 2026-05-05 15:20 | ASOS | 82 | 45 | 27 | 29.75 | 24 | WSW | |||
| Lancaster | PA | 2026-05-05 15:15 | ASOS | 82 | 43 | 25 | 29.75 | 20 | SW | |||
| Lancaster | PA | 2026-05-05 15:10 | ASOS | 82 | 45 | 27 | 29.75 | 22 | SSW | |||
| Lancaster | PA | 2026-05-05 15:05 | ASOS | 82 | 45 | 27 | 29.75 | 14 | SW | |||
| Lancaster | PA | 2026-05-05 15:00 | ASOS | 82 | 45 | 27 | 29.75 | 22 | WSW | |||
| Lancaster | PA | 2026-05-05 14:55 | ASOS | 82 | 45 | 27 | 29.75 | 23 | WSW | |||
| Lancaster | PA | 2026-05-05 07:35 | ASOS | 57 | 52 | 82 | 29.85 | 0 | N | |||
| Lancaster | PA | 2026-05-05 07:25 | ASOS | 57 | 52 | 82 | 29.85 | 0 | N | |||
| Lancaster | PA | 2026-05-04 19:25 | ASOS | 68 | 43 | 40 | 29.78 | 8 | S | |||
| Lancaster | PA | 2026-05-04 23:05 | ASOS | 61 | 44 | 55 | 29.81 | 6 | SSE | |||
| Lancaster | PA | 2026-05-04 23:35 | ASOS | 63 | 44 | 52 | 29.81 | 6 | S | |||
| Lancaster | PA | 2026-05-04 23:30 | ASOS | 63 | 44 | 52 | 29.81 | 6 | S | |||
| Lancaster | PA | 2026-05-04 23:25 | ASOS | 63 | 44 | 52 | 29.81 | 7 | S | |||
| Lancaster | PA | 2026-05-04 23:20 | ASOS | 63 | 44 | 52 | 29.81 | 7 | S | |||
| Lancaster | PA | 2026-05-04 23:15 | ASOS | 61 | 44 | 55 | 29.81 | 6 | S | |||
| Lancaster | PA | 2026-05-04 23:10 | ASOS | 61 | 44 | 55 | 29.81 | 6 | S | |||
| Lancaster | PA | 2026-05-04 23:00 | ASOS | 61 | 44 | 55 | 29.81 | 5 | SSE | |||
| Lancaster | PA | 2026-05-04 23:45 | ASOS | 63 | 44 | 52 | 29.81 | 7 | S | |||
| Lancaster | PA | 2026-05-04 22:55 | ASOS | 59 | 44 | 59 | 29.81 | 7 | SSE | |||
| Lancaster | PA | 2026-05-04 22:53 | ASOS | 58 | 44 | 60 | 29.81 | 8 | SSE | |||
| Lancaster | PA | 2026-05-04 22:50 | ASOS | 59 | 44 | 59 | 29.81 | 9 | SSE | |||
| Lancaster | PA | 2026-05-04 22:45 | ASOS | 59 | 44 | 59 | 29.81 | 8 | SSE | |||
| Lancaster | PA | 2026-05-04 22:40 | ASOS | 61 | 44 | 55 | 29.81 | 6 | SSE | |||
| Lancaster | PA | 2026-05-04 22:35 | ASOS | 61 | 44 | 55 | 29.81 | 6 | SSE | |||
| Lancaster | PA | 2026-05-04 23:40 | ASOS | 63 | 44 | 52 | 29.81 | 7 | S | |||
| Lancaster | PA | 2026-05-04 23:50 | ASOS | 63 | 44 | 52 | 29.82 | 7 | S | |||
| Lancaster | PA | 2026-05-04 22:25 | ASOS | 63 | 43 | 48 | 29.81 | 5 | S | |||
| Lancaster | PA | 2026-05-05 00:50 | ASOS | 61 | 44 | 55 | 29.82 | 3 | SSW | |||
| Lancaster | PA | 2026-05-05 01:20 | ASOS | 61 | 44 | 55 | 29.82 | 6 | SSW | |||
| Lancaster | PA | 2026-05-05 01:15 | ASOS | 61 | 44 | 55 | 29.82 | 6 | SW | |||
| Lancaster | PA | 2026-05-05 01:05 | ASOS | 61 | 44 | 55 | 29.82 | 6 | SSW | |||
| Lancaster | PA | 2026-05-05 01:00 | ASOS | 61 | 44 | 55 | 29.82 | 6 | SSW | |||
| Lancaster | PA | 2026-05-05 00:55 | ASOS | 61 | 44 | 55 | 29.82 | 3 | SSW | |||
| Lancaster | PA | 2026-05-05 00:53 | ASOS | 61 | 45 | 56 | 29.82 | 5 | ||||
| Lancaster | PA | 2026-05-05 00:45 | ASOS | 63 | 44 | 52 | 29.82 | 0 | N | |||
| Lancaster | PA | 2026-05-04 23:53 | ASOS | 63 | 44 | 50 | 29.82 | 8 | SSW | |||
| Lancaster | PA | 2026-05-05 00:40 | ASOS | 63 | 44 | 52 | 29.82 | 3 | SSW | |||
| Lancaster | PA | 2026-05-05 00:35 | ASOS | 63 | 44 | 52 | 29.82 | 3 | SW | |||
| Lancaster | PA | 2026-05-05 00:30 | ASOS | 63 | 44 | 52 | 29.82 | 5 | SW | |||
| Lancaster | PA | 2026-05-05 00:25 | ASOS | 63 | 44 | 52 | 29.82 | 5 | SW | |||
| Lancaster | PA | 2026-05-05 00:20 | ASOS | 63 | 44 | 52 | 29.82 | 6 | SSW | |||
| Lancaster | PA | 2026-05-05 00:15 | ASOS | 63 | 44 | 52 | 29.82 | 0 | N | |||
| Lancaster | PA | 2026-05-05 00:05 | ASOS | 63 | 44 | 52 | 29.82 | 5 | SSW | |||
| Lancaster | PA | 2026-05-04 22:30 | ASOS | 61 | 43 | 51 | 29.81 | 5 | S | |||
| Lancaster | PA | 2026-05-04 22:20 | ASOS | 61 | 43 | 51 | 29.81 | 5 | S | |||
| Lancaster | PA | 2026-05-05 01:30 | ASOS | 63 | 44 | 52 | 29.82 | 5 | SSW | |||
| Lancaster | PA | 2026-05-04 20:00 | ASOS | 66 | 41 | 40 | 29.79 | 9 | S | |||
| Lancaster | PA | 2026-05-04 20:30 | ASOS | 66 | 39 | 37 | 29.80 | 9 | S | |||
| Lancaster | PA | 2026-05-04 20:25 | ASOS | 66 | 39 | 37 | 29.80 | 12 | S | |||
| Lancaster | PA | 2026-05-04 20:20 | ASOS | 66 | 41 | 40 | 29.80 | 10 | S | |||
| Lancaster | PA | 2026-05-04 20:15 | ASOS | 66 | 41 | 40 | 29.80 | 8 | S | |||
| Lancaster | PA | 2026-05-04 20:10 | ASOS | 66 | 39 | 37 | 29.79 | 10 | S | |||
| Lancaster | PA | 2026-05-04 20:05 | ASOS | 66 | 41 | 40 | 29.79 | 13 | S | |||
| Lancaster | PA | 2026-05-04 19:55 | ASOS | 66 | 41 | 40 | 29.79 | 14 | S | |||
| Lancaster | PA | 2026-05-04 20:45 | ASOS | 64 | 41 | 42 | 29.80 | 9 | S | |||
| Lancaster | PA | 2026-05-04 19:53 | ASOS | 67 | 41 | 39 | 29.79 | 14 | S | |||
| Lancaster | PA | 2026-05-04 19:50 | ASOS | 66 | 41 | 40 | 29.79 | 13 | S | |||
| Lancaster | PA | 2026-05-04 19:45 | ASOS | 66 | 41 | 40 | 29.79 | 9 | S | |||
| Lancaster | PA | 2026-05-04 19:40 | ASOS | 66 | 43 | 43 | 29.79 | 12 | S | |||
| Lancaster | PA | 2026-05-04 19:35 | ASOS | 68 | 43 | 40 | 29.78 | 8 | S | |||
| Lancaster | PA | 2026-05-04 19:30 | ASOS | 68 | 43 | 40 | 29.78 | 10 | S | |||
| Lancaster | PA | 2026-05-04 20:40 | ASOS | 66 | 39 | 37 | 29.80 | 9 | S | |||
| Lancaster | PA | 2026-05-04 20:53 | ASOS | 65 | 41 | 42 | 29.80 | 8 | S | |||
| Lancaster | PA | 2026-05-04 22:15 | ASOS | 61 | 43 | 51 | 29.81 | 5 | SSE | |||
| Lancaster | PA | 2026-05-04 21:45 | ASOS | 64 | 43 | 45 | 29.82 | 6 | S | |||
| Lancaster | PA | 2026-05-04 22:10 | ASOS | 59 | 43 | 55 | 29.81 | 6 | SSE | |||
| Lancaster | PA | 2026-05-04 22:05 | ASOS | 57 | 44 | 63 | 29.81 | 6 | SE | |||
| Lancaster | PA | 2026-05-04 22:00 | ASOS | 59 | 44 | 59 | 29.81 | 7 | ESE | |||
| Lancaster | PA | 2026-05-04 21:55 | ASOS | 63 | 43 | 48 | 29.82 | 6 | ESE | |||
| Lancaster | PA | 2026-05-04 21:53 | ASOS | 63 | 43 | 48 | 29.82 | 6 | SE | |||
| Lancaster | PA | 2026-05-04 21:50 | ASOS | 64 | 43 | 45 | 29.82 | 7 | SSE | |||
| Lancaster | PA | 2026-05-04 21:40 | ASOS | 64 | 43 | 45 | 29.82 | 7 | S | |||
| Lancaster | PA | 2026-05-04 21:00 | ASOS | 64 | 41 | 42 | 29.80 | 8 | S | |||
| Lancaster | PA | 2026-05-04 21:35 | ASOS | 64 | 43 | 45 | 29.82 | 8 | S | |||
| Lancaster | PA | 2026-05-04 21:30 | ASOS | 64 | 41 | 42 | 29.82 | 8 | S | |||
| Lancaster | PA | 2026-05-04 21:25 | ASOS | 64 | 41 | 42 | 29.82 | 8 | S | |||
| Lancaster | PA | 2026-05-04 21:20 | ASOS | 64 | 41 | 42 | 29.81 | 8 | S | |||
| Lancaster | PA | 2026-05-04 21:15 | ASOS | 64 | 41 | 42 | 29.81 | 9 | S | |||
| Lancaster | PA | 2026-05-04 21:10 | ASOS | 64 | 41 | 42 | 29.81 | 9 | S | |||
| Lancaster | PA | 2026-05-04 21:05 | ASOS | 64 | 41 | 42 | 29.80 | 8 | S | |||
| Lancaster | PA | 2026-05-05 01:25 | ASOS | 63 | 44 | 52 | 29.82 | 5 | SSW | |||
| Lancaster | PA | 2026-05-05 01:35 | ASOS | 63 | 46 | 55 | 29.82 | 7 | SSW | |||
| Lancaster | PA | 2026-05-05 07:20 | ASOS | 55 | 52 | 88 | 29.85 | 0 | N | |||
| Lancaster | PA | 2026-05-05 05:10 | ASOS | 54 | 46 | 77 | 29.83 | 5 | ENE | |||
| Lancaster | PA | 2026-05-05 05:45 | ASOS | 54 | 46 | 77 | 29.83 | 5 | ESE | |||
| Lancaster | PA | 2026-05-05 05:40 | ASOS | 54 | 46 | 77 | 29.83 | 5 | E | |||
| Lancaster | PA | 2026-05-05 05:35 | ASOS | 54 | 46 | 77 | 29.83 | 5 | ENE | |||
| Lancaster | PA | 2026-05-05 05:30 | ASOS | 52 | 46 | 82 | 29.84 | 5 | ENE | |||
| Lancaster | PA | 2026-05-05 05:25 | ASOS | 54 | 46 | 77 | 29.84 | 5 | ENE | |||
| Lancaster | PA | 2026-05-05 05:20 | ASOS | 54 | 46 | 77 | 29.84 | 5 | NE | |||
| Lancaster | PA | 2026-05-05 05:05 | ASOS | 54 | 46 | 77 | 29.83 | 5 | ENE | |||
| Lancaster | PA | 2026-05-05 05:55 | ASOS | 52 | 46 | 82 | 29.84 | 0 | N | |||
| Lancaster | PA | 2026-05-05 05:00 | ASOS | 54 | 46 | 77 | 29.83 | 5 | ENE | |||
| Lancaster | PA | 2026-05-05 04:55 | ASOS | 54 | 46 | 77 | 29.83 | 3 | ENE | |||
| Lancaster | PA | 2026-05-05 04:53 | ASOS | 53 | 46 | 77 | 29.83 | 3 | ENE | |||
| Lancaster | PA | 2026-05-05 04:50 | ASOS | 52 | 46 | 82 | 29.83 | 0 | N | |||
| Lancaster | PA | 2026-05-05 04:45 | ASOS | 55 | 46 | 72 | 29.82 | 3 | SSE | |||
| Lancaster | PA | 2026-05-05 04:40 | ASOS | 54 | 46 | 77 | 29.83 | 6 | SSE | |||
| Lancaster | PA | 2026-05-05 05:50 | ASOS | 54 | 46 | 77 | 29.84 | 3 | E | |||
| Lancaster | PA | 2026-05-05 06:00 | ASOS | 52 | 46 | 82 | 29.83 | 3 | ENE | |||
| Lancaster | PA | 2026-05-05 04:30 | ASOS | 54 | 46 | 77 | 29.83 | 6 | ESE | |||
| Lancaster | PA | 2026-05-05 06:50 | ASOS | 54 | 46 | 77 | 29.85 | 0 | N | |||
| Lancaster | PA | 2026-05-05 07:15 | ASOS | 55 | 50 | 82 | 29.85 | 3 | SE | |||
| Lancaster | PA | 2026-05-05 07:10 | ASOS | 55 | 48 | 77 | 29.84 | 0 | N | |||
| Lancaster | PA | 2026-05-05 07:05 | ASOS | 54 | 48 | 82 | 29.85 | 0 | N | |||
| Lancaster | PA | 2026-05-05 07:00 | ASOS | 54 | 48 | 82 | 29.85 | 3 | SE | |||
| Lancaster | PA | 2026-05-05 06:55 | ASOS | 54 | 46 | 77 | 29.85 | 3 | SE | |||
| Lancaster | PA | 2026-05-05 06:53 | ASOS | 54 | 47 | 77 | 29.85 | 0 | N | |||
| Lancaster | PA | 2026-05-05 06:45 | ASOS | 54 | 46 | 77 | 29.85 | 3 | ESE | |||
| Lancaster | PA | 2026-05-05 06:05 | ASOS | 54 | 46 | 77 | 29.83 | 0 | N | |||
| Lancaster | PA | 2026-05-05 06:40 | ASOS | 54 | 46 | 77 | 29.85 | 0 | N | |||
| Lancaster | PA | 2026-05-05 06:35 | ASOS | 52 | 46 | 82 | 29.85 | 3 | ENE | |||
| Lancaster | PA | 2026-05-05 06:30 | ASOS | 52 | 46 | 82 | 29.85 | 5 | ENE | |||
| Lancaster | PA | 2026-05-05 06:25 | ASOS | 52 | 46 | 82 | 29.85 | 3 | ENE | |||
| Lancaster | PA | 2026-05-05 06:20 | ASOS | 54 | 46 | 77 | 29.84 | 0 | N | |||
| Lancaster | PA | 2026-05-05 06:15 | ASOS | 54 | 46 | 77 | 29.84 | 0 | N | |||
| Lancaster | PA | 2026-05-05 06:10 | ASOS | 54 | 46 | 77 | 29.84 | 0 | N | |||
| Lancaster | PA | 2026-05-05 04:35 | ASOS | 54 | 46 | 77 | 29.83 | 6 | SE | |||
| Lancaster | PA | 2026-05-05 04:25 | ASOS | 54 | 46 | 77 | 29.83 | 6 | ESE | |||
| Lancaster | PA | 2026-05-05 01:40 | ASOS | 63 | 46 | 55 | 29.82 | 5 | SSW | |||
| Lancaster | PA | 2026-05-05 02:15 | ASOS | 57 | 46 | 67 | 29.82 | 0 | N | |||
| Lancaster | PA | 2026-05-05 02:45 | ASOS | 57 | 46 | 67 | 29.82 | 3 | ESE | |||
| Lancaster | PA | 2026-05-05 02:40 | ASOS | 57 | 46 | 67 | 29.82 | 3 | ESE | |||
| Lancaster | PA | 2026-05-05 02:35 | ASOS | 61 | 46 | 59 | 29.82 | 0 | N | |||
| Lancaster | PA | 2026-05-05 02:30 | ASOS | 61 | 46 | 59 | 29.82 | 0 | N | |||
| Lancaster | PA | 2026-05-05 02:25 | ASOS | 61 | 46 | 59 | 29.82 | 0 | N | |||
| Lancaster | PA | 2026-05-05 02:20 | ASOS | 61 | 46 | 59 | 29.82 | 0 | N | |||
| Lancaster | PA | 2026-05-05 02:10 | ASOS | 61 | 46 | 59 | 29.82 | 0 | N | |||
| Lancaster | PA | 2026-05-05 02:53 | ASOS | 58 | 46 | 65 | 29.82 | 5 | E | |||
| Lancaster | PA | 2026-05-05 02:05 | ASOS | 63 | 44 | 52 | 29.82 | 0 | N | |||
| Lancaster | PA | 2026-05-05 02:00 | ASOS | 63 | 44 | 52 | 29.82 | 0 | N | |||
| Lancaster | PA | 2026-05-05 01:55 | ASOS | 63 | 46 | 55 | 29.82 | 3 | SW | |||
| Lancaster | PA | 2026-05-05 01:53 | ASOS | 62 | 45 | 53 | 29.82 | 0 | N | |||
| Lancaster | PA | 2026-05-05 01:50 | ASOS | 63 | 44 | 52 | 29.82 | 3 | SW | |||
| Lancaster | PA | 2026-05-05 01:45 | ASOS | 63 | 46 | 55 | 29.82 | 3 | SW | |||
| Lancaster | PA | 2026-05-05 02:50 | ASOS | 57 | 46 | 67 | 29.82 | 5 | E | |||
| Lancaster | PA | 2026-05-05 02:55 | ASOS | 57 | 46 | 67 | 29.82 | 3 | E | |||
| Lancaster | PA | 2026-05-05 04:20 | ASOS | 55 | 46 | 72 | 29.82 | 6 | ESE | |||
| Lancaster | PA | 2026-05-05 03:45 | ASOS | 54 | 46 | 77 | 29.83 | 3 | E | |||
| Lancaster | PA | 2026-05-05 04:15 | ASOS | 54 | 46 | 77 | 29.83 | 6 | E | |||
| Lancaster | PA | 2026-05-05 04:10 | ASOS | 55 | 46 | 72 | 29.82 | 6 | ESE | |||
| Lancaster | PA | 2026-05-05 04:05 | ASOS | 55 | 46 | 72 | 29.82 | 5 | E | |||
| Lancaster | PA | 2026-05-05 04:00 | ASOS | 55 | 46 | 72 | 29.82 | 5 | E | |||
| Lancaster | PA | 2026-05-05 03:53 | ASOS | 55 | 47 | 74 | 29.83 | 3 | E | |||
| Lancaster | PA | 2026-05-05 03:50 | ASOS | 54 | 46 | 77 | 29.83 | 5 | E | |||
| Lancaster | PA | 2026-05-05 03:40 | ASOS | 54 | 46 | 77 | 29.82 | 5 | E | |||
| Lancaster | PA | 2026-05-05 03:00 | ASOS | 55 | 46 | 72 | 29.81 | 3 | E | |||
| Lancaster | PA | 2026-05-05 03:35 | ASOS | 54 | 46 | 77 | 29.82 | 3 | E | |||
| Lancaster | PA | 2026-05-05 03:30 | ASOS | 54 | 46 | 77 | 29.82 | 3 | E | |||
| Lancaster | PA | 2026-05-05 03:25 | ASOS | 54 | 46 | 77 | 29.82 | 3 | ENE | |||
| Lancaster | PA | 2026-05-05 03:20 | ASOS | 54 | 46 | 77 | 29.82 | 5 | E | |||
| Lancaster | PA | 2026-05-05 03:15 | ASOS | 55 | 46 | 72 | 29.81 | 5 | E | |||
| Lancaster | PA | 2026-05-05 03:10 | ASOS | 54 | 48 | 82 | 29.82 | 3 | E | |||
| Lancaster | PA | 2026-05-05 03:05 | ASOS | 55 | 46 | 72 | 29.82 | 3 | E | |||
| Lancaster | PA | 2026-05-05 19:10 | ASOS | 79 | 41 | 26 | 29.75 | 12 | SSW |
data collection created in 0.048562049865723 (queried in 0.014646) rendered in: 0.00060510635375977

